createdAt,value
2023-01-08T00:02:21.885Z,46.66
2023-01-08T00:04:48.889Z,46.41
2023-01-08T00:07:15.983Z,46.41
2023-01-08T00:09:43.739Z,46.80
2023-01-08T00:12:10.960Z,47.49
2023-01-08T00:14:37.921Z,46.56
2023-01-08T00:17:04.666Z,46.62
2023-01-08T00:19:31.575Z,46.74
2023-01-08T00:21:58.297Z,46.53
2023-01-08T00:24:25.243Z,46.56
2023-01-08T00:26:52.019Z,45.94
2023-01-08T00:29:18.932Z,46.12
2023-01-08T00:31:45.700Z,45.55
2023-01-08T00:34:12.572Z,45.44
2023-01-08T00:36:39.318Z,45.49
2023-01-08T00:39:06.208Z,45.51
2023-01-08T00:41:33.039Z,45.71
2023-01-08T00:43:59.841Z,45.37
2023-01-08T00:46:26.544Z,45.85
2023-01-08T00:48:53.345Z,46.40
2023-01-08T00:51:20.066Z,45.84
2023-01-08T00:53:46.896Z,46.20
2023-01-08T00:56:13.526Z,47.17
2023-01-08T00:58:40.413Z,47.10
2023-01-08T01:01:14.981Z,46.65
2023-01-08T01:03:42.804Z,46.51
2023-01-08T01:06:11.964Z,46.49
2023-01-08T01:08:38.927Z,46.21
2023-01-08T01:11:10.720Z,45.99
2023-01-08T01:13:37.585Z,46.47
2023-01-08T01:16:04.600Z,45.75
2023-01-08T01:18:32.025Z,46.08
2023-01-08T01:20:59.845Z,45.53
2023-01-08T01:23:26.562Z,45.65
2023-01-08T01:25:56.001Z,46.00
2023-01-08T01:28:23.397Z,45.85
2023-01-08T01:30:57.216Z,45.73
2023-01-08T01:33:23.929Z,45.10
2023-01-08T01:35:59.547Z,44.80
2023-01-08T01:38:26.468Z,45.61
2023-01-08T01:40:53.207Z,45.16
2023-01-08T01:43:43.773Z,45.92
2023-01-08T01:46:33.466Z,45.49
2023-01-08T01:49:06.106Z,44.90
2023-01-08T01:51:34.981Z,44.63
2023-01-08T01:54:04.024Z,44.62
2023-01-08T01:56:32.510Z,45.02
2023-01-08T01:58:59.697Z,45.77
2023-01-08T02:01:28.901Z,45.39
2023-01-08T02:03:55.777Z,45.43
2023-01-08T02:06:32.597Z,46.14
2023-01-08T02:09:09.551Z,48.54
2023-01-08T02:12:17.850Z,50.80
2023-01-08T02:14:52.409Z,48.78
2023-01-08T02:17:44.169Z,49.91
2023-01-08T02:20:30.488Z,52.99
2023-01-08T02:23:09.999Z,51.65
2023-01-08T02:25:55.368Z,50.65
2023-01-08T02:28:24.238Z,48.56
2023-01-08T02:30:50.966Z,48.82
2023-01-08T02:33:17.843Z,48.52
2023-01-08T02:36:22.122Z,48.06
2023-01-08T02:39:03.168Z,47.83
2023-01-08T02:42:06.599Z,47.19
2023-01-08T02:44:51.478Z,46.38
2023-01-08T02:47:44.902Z,47.24
2023-01-08T02:50:23.976Z,46.85
2023-01-08T02:53:01.185Z,47.39
2023-01-08T02:55:30.911Z,46.53
2023-01-08T02:57:58.724Z,46.49
2023-01-08T03:00:26.656Z,46.58
2023-01-08T03:03:20.042Z,46.47
2023-01-08T03:05:51.691Z,46.19
2023-01-08T03:08:19.684Z,46.39
2023-01-08T03:10:53.245Z,47.02
2023-01-08T03:13:44.295Z,47.18
2023-01-08T03:16:21.095Z,46.79
2023-01-08T03:18:54.113Z,46.75
2023-01-08T03:21:22.442Z,47.32
2023-01-08T03:23:51.040Z,47.20
2023-01-08T03:26:23.024Z,47.28
2023-01-08T03:28:53.509Z,46.90
2023-01-08T03:31:23.079Z,46.42
2023-01-08T03:33:50.501Z,46.56
2023-01-08T03:36:24.166Z,46.56
2023-01-08T03:38:59.547Z,46.41
2023-01-08T03:41:31.215Z,46.72
2023-01-08T03:43:58.146Z,47.63
2023-01-08T03:46:33.087Z,46.19
2023-01-08T03:49:02.322Z,46.35
2023-01-08T03:51:39.656Z,45.56
2023-01-08T03:54:09.409Z,45.83
2023-01-08T03:56:36.102Z,46.55
2023-01-08T03:59:02.917Z,47.40
2023-01-08T04:01:29.695Z,46.46
2023-01-08T04:03:56.518Z,46.92
2023-01-08T04:06:23.425Z,47.78
2023-01-08T04:08:50.553Z,47.71
2023-01-08T04:11:17.362Z,47.73
2023-01-08T04:13:44.278Z,46.81
2023-01-08T04:16:12.083Z,47.25
2023-01-08T04:18:38.905Z,46.75
2023-01-08T04:21:05.999Z,46.88
2023-01-08T04:23:33.061Z,46.19
2023-01-08T04:25:59.853Z,46.77
2023-01-08T04:28:26.552Z,46.43
2023-01-08T04:30:53.343Z,47.77
2023-01-08T04:33:20.241Z,49.55
2023-01-08T04:35:46.986Z,51.22
2023-01-08T04:38:13.831Z,50.55
2023-01-08T04:40:40.567Z,49.94
2023-01-08T04:43:07.257Z,49.92
2023-01-08T04:45:34.423Z,50.16
2023-01-08T04:48:01.561Z,50.28
2023-01-08T04:50:28.364Z,48.06
2023-01-08T04:52:58.445Z,46.72
2023-01-08T04:55:25.265Z,48.61
2023-01-08T04:57:52.183Z,49.35
2023-01-08T05:00:18.849Z,49.14
2023-01-08T05:02:45.651Z,49.08
2023-01-08T05:05:14.134Z,48.77
2023-01-08T05:07:40.782Z,47.80
2023-01-08T05:10:08.053Z,48.99
2023-01-08T05:12:34.856Z,48.67
2023-01-08T05:15:01.757Z,47.11
2023-01-08T05:17:28.593Z,46.85
2023-01-08T05:19:55.347Z,47.51
2023-01-08T05:22:22.116Z,47.81
2023-01-08T05:24:48.805Z,47.26
2023-01-08T05:27:15.486Z,47.40
2023-01-08T05:29:42.227Z,47.04
2023-01-08T05:32:16.233Z,47.01
2023-01-08T05:34:44.519Z,46.92
2023-01-08T05:37:11.830Z,47.68
2023-01-08T05:39:38.668Z,47.89
2023-01-08T05:42:05.480Z,47.02
2023-01-08T05:44:32.205Z,47.89
2023-01-08T05:46:59.018Z,47.52
2023-01-08T05:49:27.059Z,47.29
2023-01-08T05:51:53.950Z,46.74
2023-01-08T05:54:20.704Z,46.49
2023-01-08T05:56:47.615Z,46.38
2023-01-08T05:59:14.659Z,46.07
2023-01-08T06:01:44.763Z,46.17
2023-01-08T06:04:11.515Z,46.01
2023-01-08T06:06:38.331Z,46.64
2023-01-08T06:09:05.151Z,47.04
2023-01-08T06:11:31.923Z,46.58
2023-01-08T06:13:58.663Z,46.48
2023-01-08T06:16:25.507Z,45.97
2023-01-08T06:18:52.237Z,46.83
2023-01-08T06:21:19.092Z,46.72
2023-01-08T06:23:45.934Z,46.54
2023-01-08T06:26:12.920Z,46.75
2023-01-08T06:28:39.679Z,46.32
2023-01-08T06:31:06.598Z,46.36
2023-01-08T06:33:33.437Z,46.27
2023-01-08T06:36:05.357Z,46.38
2023-01-08T06:38:33.750Z,46.36
2023-01-08T06:41:11.269Z,46.07
2023-01-08T06:43:39.015Z,46.15
2023-01-08T06:46:08.104Z,45.73
2023-01-08T06:48:35.439Z,46.33
2023-01-08T06:51:04.528Z,45.76
2023-01-08T06:53:31.545Z,45.41
2023-01-08T06:55:58.897Z,46.98
2023-01-08T06:58:27.989Z,46.06
2023-01-08T07:00:54.906Z,45.83
2023-01-08T07:03:21.775Z,45.99
2023-01-08T07:05:50.796Z,46.47
2023-01-08T07:08:18.646Z,46.66
2023-01-08T07:10:45.784Z,46.04
2023-01-08T07:13:12.912Z,45.72
2023-01-08T07:15:40.968Z,45.53
2023-01-08T07:18:09.387Z,45.84
2023-01-08T07:20:36.731Z,44.96
2023-01-08T07:23:10.065Z,45.82
2023-01-08T07:25:38.014Z,46.08
2023-01-08T07:28:04.842Z,45.73
2023-01-08T07:30:31.631Z,46.63
2023-01-08T07:33:02.096Z,46.05
2023-01-08T07:35:30.398Z,46.26
2023-01-08T07:37:58.355Z,47.25
2023-01-08T07:40:25.216Z,47.95
2023-01-08T07:42:59.400Z,45.97
2023-01-08T07:45:28.994Z,46.21
2023-01-08T07:47:59.286Z,47.02
2023-01-08T07:50:27.016Z,45.63
2023-01-08T07:52:57.543Z,44.94
2023-01-08T07:55:24.535Z,45.73
2023-01-08T07:57:51.235Z,45.53
2023-01-08T08:00:18.328Z,45.47
2023-01-08T08:02:45.168Z,47.51
2023-01-08T08:05:12.435Z,45.93
2023-01-08T08:07:39.244Z,47.42
2023-01-08T08:10:06.756Z,47.76
2023-01-08T08:12:33.514Z,46.12
2023-01-08T08:15:00.414Z,45.70
2023-01-08T08:17:27.289Z,45.63
2023-01-08T08:19:54.588Z,45.29
2023-01-08T08:22:21.306Z,44.18
2023-01-08T08:24:48.100Z,44.39
2023-01-08T08:27:14.829Z,44.11
2023-01-08T08:29:41.464Z,43.88
2023-01-08T08:32:08.287Z,43.09
2023-01-08T08:34:35.011Z,43.47
2023-01-08T08:37:01.864Z,43.84
2023-01-08T08:39:28.688Z,43.39
2023-01-08T08:41:55.387Z,43.63
2023-01-08T08:44:22.285Z,43.06
2023-01-08T08:46:49.072Z,42.85
2023-01-08T08:49:16.054Z,42.54
2023-01-08T08:51:42.833Z,41.53
2023-01-08T08:54:11.246Z,41.18
2023-01-08T08:56:37.963Z,39.92
2023-01-08T08:59:04.729Z,40.64
2023-01-08T09:01:31.879Z,39.81
2023-01-08T09:03:58.754Z,39.57
2023-01-08T09:06:27.715Z,39.71
2023-01-08T09:08:55.167Z,38.53
2023-01-08T09:11:22.180Z,41.68
2023-01-08T09:13:49.004Z,41.42
2023-01-08T09:16:16.366Z,40.02
2023-01-08T09:18:43.142Z,39.38
2023-01-08T09:21:09.962Z,39.89
2023-01-08T09:23:36.921Z,39.03
2023-01-08T09:26:05.450Z,39.22
2023-01-08T09:28:34.005Z,38.50
2023-01-08T09:31:02.843Z,38.42
2023-01-08T09:33:30.368Z,38.69
2023-01-08T09:35:57.558Z,38.68
2023-01-08T09:38:24.379Z,38.17
2023-01-08T09:41:12.731Z,37.58
2023-01-08T09:43:43.951Z,37.19
2023-01-08T09:46:12.485Z,37.07
2023-01-08T09:48:41.374Z,37.86
2023-01-08T09:51:17.489Z,36.87
2023-01-08T09:53:45.246Z,37.35
2023-01-08T09:56:17.554Z,36.67
2023-01-08T09:58:50.442Z,36.23
2023-01-08T10:01:21.020Z,36.78
2023-01-08T10:03:58.358Z,36.08
2023-01-08T10:06:25.579Z,37.87
2023-01-08T10:08:52.583Z,37.41
2023-01-08T10:11:20.751Z,37.12
2023-01-08T10:13:53.649Z,36.64
2023-01-08T10:16:30.526Z,36.73
2023-01-08T10:19:00.100Z,35.55
2023-01-08T10:21:33.145Z,36.63
2023-01-08T10:24:01.326Z,36.00
2023-01-08T10:26:31.480Z,36.70
2023-01-08T10:29:18.520Z,37.14
2023-01-08T10:31:54.459Z,36.23
2023-01-08T10:34:26.892Z,36.11
2023-01-08T10:36:55.776Z,36.47
2023-01-08T10:39:31.096Z,35.81
2023-01-08T10:42:05.634Z,35.43
2023-01-08T10:44:33.548Z,35.80
2023-01-08T10:47:01.331Z,37.93
2023-01-08T10:49:39.168Z,36.50
2023-01-08T10:52:06.280Z,35.47
2023-01-08T10:54:39.192Z,36.31
2023-01-08T10:57:27.705Z,35.77
2023-01-08T10:59:56.063Z,36.08
2023-01-08T11:02:38.550Z,36.74
2023-01-08T11:05:10.937Z,36.42
2023-01-08T11:07:40.488Z,36.92
2023-01-08T11:10:21.601Z,37.30
2023-01-08T11:12:54.235Z,36.99
2023-01-08T11:15:28.019Z,36.04
2023-01-08T11:17:54.901Z,36.64
2023-01-08T11:20:30.830Z,36.33
2023-01-08T11:23:26.729Z,36.83
2023-01-08T11:26:11.376Z,36.53
2023-01-08T11:29:07.984Z,36.45
2023-01-08T11:31:44.203Z,36.60
2023-01-08T11:34:34.724Z,35.78
2023-01-08T11:37:14.109Z,36.57
2023-01-08T11:39:41.099Z,36.16
2023-01-08T11:42:27.878Z,35.65
2023-01-08T11:45:35.382Z,35.77
2023-01-08T11:48:28.379Z,35.31
2023-01-08T11:51:27.279Z,34.58
2023-01-08T11:54:05.974Z,34.60
2023-01-08T11:56:51.292Z,34.39
2023-01-08T11:59:18.090Z,33.22
2023-01-08T12:01:59.898Z,32.74
2023-01-08T12:04:54.418Z,31.17
2023-01-08T12:07:33.128Z,29.86
2023-01-08T12:10:13.146Z,29.54
2023-01-08T12:12:58.264Z,28.44
2023-01-08T12:15:35.981Z,26.37
2023-01-08T12:18:42.428Z,25.47
2023-01-08T12:21:34.996Z,24.97
2023-01-08T12:24:30.497Z,24.71
2023-01-08T12:27:09.486Z,25.09
2023-01-08T12:29:38.924Z,24.90
2023-01-08T12:32:44.071Z,24.31
2023-01-08T12:35:18.746Z,24.59
2023-01-08T12:37:58.742Z,24.16
2023-01-08T12:40:36.053Z,23.48
2023-01-08T12:43:11.782Z,23.29
2023-01-08T12:45:46.453Z,22.68
2023-01-08T12:48:23.675Z,21.45
2023-01-08T12:50:53.484Z,21.52
2023-01-08T12:53:42.977Z,20.43
2023-01-08T12:56:21.271Z,20.30
2023-01-08T12:59:11.408Z,21.87
2023-01-08T13:02:16.283Z,21.50
2023-01-08T13:04:45.934Z,20.94
2023-01-08T13:07:28.060Z,20.29
2023-01-08T13:10:05.900Z,21.10
2023-01-08T13:12:40.437Z,21.12
2023-01-08T13:15:08.427Z,20.87
2023-01-08T13:17:37.622Z,21.07
2023-01-08T13:20:07.040Z,20.74
2023-01-08T13:22:36.844Z,20.89
2023-01-08T13:25:15.816Z,20.94
2023-01-08T13:27:44.533Z,21.15
2023-01-08T13:30:50.083Z,21.73
2023-01-08T13:33:39.959Z,23.00
2023-01-08T13:36:24.936Z,24.65
2023-01-08T13:39:06.317Z,24.62
2023-01-08T13:41:41.590Z,25.24
2023-01-08T13:44:26.758Z,26.47
2023-01-08T13:46:56.581Z,27.73
2023-01-08T13:49:35.533Z,29.29
2023-01-08T13:52:03.180Z,28.75
2023-01-08T13:54:39.159Z,30.46
2023-01-08T13:57:13.435Z,30.69
2023-01-08T13:59:47.946Z,30.88
2023-01-08T14:02:44.658Z,31.29
2023-01-08T14:05:29.623Z,30.39
2023-01-08T14:07:58.927Z,31.09
2023-01-08T14:10:27.765Z,31.13
2023-01-08T14:13:05.408Z,31.31
2023-01-08T14:15:34.809Z,31.03
2023-01-08T14:18:04.718Z,31.38
2023-01-08T14:20:40.865Z,31.30
2023-01-08T14:23:18.360Z,31.04
2023-01-08T14:25:49.485Z,31.85
2023-01-08T14:28:22.019Z,31.45
2023-01-08T14:30:51.309Z,31.63
2023-01-08T14:33:20.842Z,32.35
2023-01-08T14:35:50.863Z,32.56
2023-01-08T14:38:18.571Z,33.02
2023-01-08T14:40:51.513Z,33.51
2023-01-08T14:43:21.029Z,32.53
2023-01-08T14:45:52.504Z,32.06
2023-01-08T14:48:28.488Z,32.36
2023-01-08T14:51:20.620Z,32.08
2023-01-08T14:53:56.020Z,33.46
2023-01-08T14:56:36.155Z,34.94
2023-01-08T14:59:11.883Z,34.81
2023-01-08T15:01:39.360Z,34.32
2023-01-08T15:04:14.738Z,32.99
2023-01-08T15:06:41.911Z,34.61
2023-01-08T15:09:29.116Z,35.68
2023-01-08T15:12:04.094Z,37.00
2023-01-08T15:14:33.509Z,37.34
2023-01-08T15:17:09.868Z,37.74
2023-01-08T15:19:52.091Z,37.98
2023-01-08T15:22:22.647Z,37.32
2023-01-08T15:24:59.570Z,37.61
2023-01-08T15:27:27.591Z,38.14
2023-01-08T15:30:00.898Z,39.21
2023-01-08T15:32:31.357Z,38.40
2023-01-08T15:34:58.591Z,37.59
2023-01-08T15:37:25.457Z,38.62
2023-01-08T15:39:52.519Z,38.92
2023-01-08T15:42:48.769Z,38.68
2023-01-08T15:45:18.689Z,38.84
2023-01-08T15:47:45.771Z,38.70
2023-01-08T15:50:13.406Z,39.37
2023-01-08T15:52:42.911Z,41.03
2023-01-08T15:55:19.366Z,41.34
2023-01-08T15:57:47.421Z,40.21
2023-01-08T16:00:16.569Z,40.08
2023-01-08T16:02:46.908Z,38.84
2023-01-08T16:05:15.163Z,38.12
2023-01-08T16:07:42.064Z,39.17
2023-01-08T16:10:09.723Z,37.72
2023-01-08T16:12:36.720Z,38.86
2023-01-08T16:15:04.303Z,38.91
2023-01-08T16:17:31.742Z,40.02
2023-01-08T16:19:58.512Z,39.27
2023-01-08T16:22:25.426Z,39.30
2023-01-08T16:24:52.362Z,40.01
2023-01-08T16:27:19.224Z,41.75
2023-01-08T16:29:45.857Z,40.95
2023-01-08T16:32:12.634Z,42.56
2023-01-08T16:34:39.407Z,43.11
2023-01-08T16:37:06.572Z,42.26
2023-01-08T16:39:33.581Z,41.08
2023-01-08T16:42:00.355Z,41.60
2023-01-08T16:44:28.758Z,42.42
2023-01-08T16:46:56.040Z,41.87
2023-01-08T16:49:22.915Z,41.71
2023-01-08T16:51:49.875Z,42.11
2023-01-08T16:54:16.903Z,43.50
2023-01-08T16:56:43.633Z,41.67
2023-01-08T16:59:22.294Z,41.54
2023-01-08T17:01:49.942Z,41.16
2023-01-08T17:04:17.013Z,41.46
2023-01-08T17:06:43.736Z,42.15
2023-01-08T17:09:11.784Z,42.08
2023-01-08T17:11:39.104Z,41.28
2023-01-08T17:14:05.859Z,41.28
2023-01-08T17:16:32.801Z,41.12
2023-01-08T17:18:59.776Z,41.31
2023-01-08T17:21:26.499Z,41.73
2023-01-08T17:23:53.328Z,41.53
2023-01-08T17:26:20.089Z,41.08
2023-01-08T17:28:47.379Z,41.14
2023-01-08T17:31:18.983Z,41.69
2023-01-08T17:33:50.332Z,41.27
2023-01-08T17:36:18.489Z,40.90
2023-01-08T17:38:47.097Z,41.45
2023-01-08T17:41:33.814Z,41.23
2023-01-08T17:44:01.341Z,41.30
2023-01-08T17:46:28.383Z,41.73
2023-01-08T17:48:55.191Z,41.52
2023-01-08T17:51:21.916Z,41.34
2023-01-08T17:53:48.812Z,41.95
2023-01-08T17:56:15.574Z,41.25
2023-01-08T17:58:43.392Z,40.84
2023-01-08T18:01:12.942Z,40.63
2023-01-08T18:03:39.677Z,40.67
2023-01-08T18:06:11.514Z,41.16
2023-01-08T18:08:39.228Z,41.26
2023-01-08T18:11:08.742Z,40.48
2023-01-08T18:13:36.681Z,40.37
2023-01-08T18:16:05.498Z,40.30
2023-01-08T18:18:33.031Z,42.24
2023-01-08T18:20:59.718Z,41.01
2023-01-08T18:23:27.275Z,41.66
2023-01-08T18:25:54.072Z,42.15
2023-01-08T18:28:21.043Z,41.11
2023-01-08T18:30:47.853Z,40.77
2023-01-08T18:33:15.630Z,40.84
2023-01-08T18:35:42.564Z,40.53
2023-01-08T18:38:18.570Z,41.07
2023-01-08T18:40:46.909Z,41.12
2023-01-08T18:43:13.632Z,40.78
2023-01-08T18:45:41.370Z,41.34
2023-01-08T18:48:11.971Z,40.75
2023-01-08T18:50:40.467Z,40.81
2023-01-08T18:53:09.026Z,40.39
2023-01-08T18:55:37.311Z,41.03
2023-01-08T18:58:04.757Z,40.54
2023-01-08T19:00:31.932Z,40.86
2023-01-08T19:02:58.753Z,41.27
2023-01-08T19:05:25.842Z,41.17
2023-01-08T19:07:52.604Z,41.23
2023-01-08T19:10:19.914Z,41.52
2023-01-08T19:12:46.709Z,41.29
2023-01-08T19:15:13.622Z,41.63
2023-01-08T19:17:40.292Z,40.90
2023-01-08T19:20:08.037Z,41.06
2023-01-08T19:22:34.937Z,41.38
2023-01-08T19:25:01.804Z,41.14
2023-01-08T19:27:28.526Z,41.54
2023-01-08T19:29:55.396Z,40.75
2023-01-08T19:32:22.165Z,41.22
2023-01-08T19:34:49.016Z,42.89
2023-01-08T19:37:15.762Z,41.94
2023-01-08T19:39:42.546Z,41.21
2023-01-08T19:42:34.133Z,41.65
2023-01-08T19:45:01.137Z,42.68
2023-01-08T19:47:28.202Z,42.31
2023-01-08T19:49:55.009Z,42.19
2023-01-08T19:52:22.735Z,41.74
2023-01-08T19:54:49.610Z,42.03
2023-01-08T19:57:16.403Z,41.86
2023-01-08T19:59:43.397Z,41.62
2023-01-08T20:02:10.455Z,41.88
2023-01-08T20:04:42.667Z,42.87
2023-01-08T20:07:10.392Z,41.76
2023-01-08T20:09:38.502Z,42.28
2023-01-08T20:12:06.208Z,42.08
2023-01-08T20:14:34.299Z,42.31
2023-01-08T20:17:01.840Z,42.27
2023-01-08T20:19:29.091Z,42.42
2023-01-08T20:21:57.349Z,42.22
2023-01-08T20:24:24.678Z,41.99
2023-01-08T20:26:51.716Z,43.27
2023-01-08T20:29:18.474Z,42.15
2023-01-08T20:31:45.446Z,42.51
2023-01-08T20:34:15.454Z,42.78
2023-01-08T20:36:44.544Z,42.74
2023-01-08T20:39:15.103Z,43.23
2023-01-08T20:41:49.817Z,42.66
2023-01-08T20:44:28.117Z,43.13
2023-01-08T20:46:54.959Z,42.42
2023-01-08T20:49:21.835Z,42.13
2023-01-08T20:51:57.838Z,42.60
2023-01-08T20:54:26.244Z,43.17
2023-01-08T20:56:55.767Z,42.39
2023-01-08T20:59:24.157Z,42.34
2023-01-08T21:01:51.311Z,42.93
2023-01-08T21:04:18.949Z,43.70
2023-01-08T21:06:46.063Z,42.56
2023-01-08T21:09:14.141Z,42.86
2023-01-08T21:11:41.331Z,43.12
2023-01-08T21:14:08.385Z,42.66
2023-01-08T21:16:35.596Z,43.02
2023-01-08T21:19:03.315Z,42.61
2023-01-08T21:21:33.534Z,42.89
2023-01-08T21:24:04.547Z,43.91
2023-01-08T21:26:33.908Z,43.82
2023-01-08T21:29:03.131Z,43.57
2023-01-08T21:31:30.139Z,43.57
2023-01-08T21:33:58.906Z,43.95
2023-01-08T21:36:28.534Z,43.13
2023-01-08T21:38:59.979Z,43.88
2023-01-08T21:41:46.647Z,43.50
2023-01-08T21:44:34.661Z,42.62
2023-01-08T21:47:02.855Z,44.22
2023-01-08T21:49:29.719Z,43.51
2023-01-08T21:52:15.232Z,43.65
2023-01-08T21:54:42.282Z,44.14
2023-01-08T21:57:10.170Z,44.57
2023-01-08T21:59:37.199Z,45.96
2023-01-08T22:02:05.258Z,44.35
2023-01-08T22:04:32.946Z,44.99
2023-01-08T22:06:59.731Z,44.13
2023-01-08T22:09:26.693Z,43.75
2023-01-08T22:11:55.899Z,44.05
2023-01-08T22:14:22.634Z,44.91
2023-01-08T22:16:49.410Z,44.15
2023-01-08T22:19:16.293Z,44.28
2023-01-08T22:21:43.088Z,43.77
2023-01-08T22:24:10.116Z,44.04
2023-01-08T22:26:37.003Z,43.86
2023-01-08T22:29:05.972Z,44.34
2023-01-08T22:31:33.280Z,43.69
2023-01-08T22:34:00.248Z,43.32
2023-01-08T22:36:27.213Z,44.41
2023-01-08T22:38:54.210Z,46.03
2023-01-08T22:41:23.230Z,47.14
2023-01-08T22:43:55.894Z,45.95
2023-01-08T22:46:24.576Z,45.30
2023-01-08T22:48:51.730Z,46.12
2023-01-08T22:51:27.481Z,46.47
2023-01-08T22:53:55.653Z,46.07
2023-01-08T22:56:23.317Z,45.47
2023-01-08T22:58:50.721Z,45.46
2023-01-08T23:01:20.442Z,44.67
2023-01-08T23:03:55.768Z,44.48
2023-01-08T23:06:26.095Z,44.31
2023-01-08T23:08:53.989Z,44.91
2023-01-08T23:11:23.108Z,43.91
2023-01-08T23:13:51.226Z,44.35
2023-01-08T23:16:21.857Z,44.86
2023-01-08T23:18:49.757Z,45.64
2023-01-08T23:21:19.561Z,45.67
2023-01-08T23:23:47.053Z,45.16
2023-01-08T23:26:28.790Z,44.89
2023-01-08T23:28:57.020Z,44.40
2023-01-08T23:31:26.977Z,44.41
2023-01-08T23:33:54.492Z,44.38
2023-01-08T23:36:22.012Z,44.96
2023-01-08T23:38:53.519Z,45.81
2023-01-08T23:41:23.109Z,46.86
2023-01-08T23:43:50.314Z,47.20
2023-01-08T23:46:17.759Z,47.94
2023-01-08T23:48:44.548Z,46.69
2023-01-08T23:51:11.553Z,47.99
2023-01-08T23:53:38.588Z,47.30
2023-01-08T23:56:05.626Z,47.07
2023-01-08T23:58:32.392Z,47.14
